Bankstown, New South Wales

4:59 PM AEDT on February 01, 2015 (GMT +1100)
Moorebank | Change Station
CLOSE
Current Station
Personal Weather Station
Location: Moorebank, NSW
Elevation: 72 ft
Nearby Weather Stations

Elev 72 ft 33.93 °S, 150.95 °E | Updated 4 minutes ago

Overcast
Overcast
73.6 °F
Feels Like 77 °F
N
8.0
Wind Variable Wind from ESE
Gusts 11.0 mph

Today
High -- | Low -- °F
--% Chance of Precip.
Yesterday
High -- | Low -- °F
Precip. -- in
6:16 AM 8:01 PM
Waxing Gibbous, 93% visible
Pressure 29.80 in
Visibility 6.2 miles
Clouds Few 2200 ft
Mostly Cloudy 3000 ft
Mostly Cloudy 4200 ft
Heat Index 77 °F
Dew Point 44 °F
Humidity 34%
Rainfall -999.00 in
Snow Depth Not available.
UV 3 out of 12
Pollen Not available.
Air Quality Not available.
Flu Activity Not available.
METAR YSSY 010530Z 13012KT 9999 -SHRA FEW022 BKN030 BKN042 23/15 Q1009 RMK DISTANT LIGHTNING DETECTED W TO NW TEMPO 0700/0830 3000 TSRA BKN012 SCT035CB

More Conditions Fewer Conditions

Pressure 29.80 in
Visibility 6.2 miles
Clouds Few 2200 ft
Mostly Cloudy 3000 ft
Mostly Cloudy 4200 ft
Heat Index 77 °F
Dew Point 44 °F
Humidity 34%
Rainfall -999.00 in
Snow Depth Not available.
UV 3 out of 12
Pollen Not available.
Air Quality Not available.
Flu Activity Not available.
METAR YSSY 010530Z 13012KT 9999 -SHRA FEW022 BKN030 BKN042 23/15 Q1009 RMK DISTANT LIGHTNING DETECTED W TO NW TEMPO 0700/0830 3000 TSRA BKN012 SCT035CB

More Conditions Fewer Conditions

10-Day Weather Forecast

Almanac

Astronomy

Feb. 01, 2015 Rise Set
Actual Time
Civil Twilight
Nautical Twilight
Astronomical Twilight
Moon
Length of Visible Light
Length of Day
Tomorrow will be .
, % of the Moon is Illuminated

Today's Extremes

Country Highs Country Lows

Community

WunderPhotos

Upload Photos

1,792,316 photos uploaded!

WunderBlogs® & News

Nearby

Air Quality

  Air Quality AQ Index Pollutant
Not available.

Snow Depth

Station Depth Elevation

Earthquake Activity

City Distance Mag. Time & Date
Minimum magnitude displayed is 2.5.

Coastal Water Temperatures

Place Temperature

Nearby Weather Stations